Time;durP1;ratioP1;P1;durP2;ratioP2;P2;SDS_P1;SDS_P2;PMS_P1;PMS_P2;Temp;Humidity;BMP_temperature;BMP_pressure;BME280_temperature;BME280_humidity;BME280_pressure;Samples;Min_cycle;Max_cycle;Signal;HPM_P1;HPM_P2
2023/11/30 00:01:02;;;;;;;90.70;36.90;;;;;;;-3.74;91.20;99604.88;105528;1259;97870;-79
2023/11/30 00:03:48;;;;;;;85.10;34.30;;;;;;;-3.74;91.01;99600.63;105473;1262;102511;-78
2023/11/30 00:06:38;;;;;;;83.00;35.30;;;;;;;-3.74;91.15;99601.92;105893;1261;99575;-79
2023/11/30 00:09:23;;;;;;;81.20;35.60;;;;;;;-3.75;91.33;99603.40;105841;1259;98354;-79
2023/11/30 00:12:09;;;;;;;75.00;34.10;;;;;;;-3.75;91.45;99604.29;105876;1264;97880;-80
2023/11/30 00:14:54;;;;;;;85.40;35.30;;;;;;;-3.73;91.66;99598.88;105718;1259;98536;-79
2023/11/30 00:17:40;;;;;;;77.60;34.20;;;;;;;-3.71;91.55;99602.86;105656;1259;101519;-79
2023/11/30 00:20:25;;;;;;;79.70;34.40;;;;;;;-3.71;91.41;99603.69;105826;1259;99093;-80
2023/11/30 00:23:11;;;;;;;83.30;34.60;;;;;;;-3.71;91.39;99603.00;105801;1262;97990;-78
2023/11/30 00:25:57;;;;;;;73.00;33.20;;;;;;;-3.71;91.41;99603.20;105848;1259;99110;-79
2023/11/30 00:28:42;;;;;;;79.30;34.30;;;;;;;-3.71;91.50;99604.97;105807;1259;99662;-79
2023/11/30 00:31:28;;;;;;;78.40;33.00;;;;;;;-3.72;91.40;99606.41;105867;1263;101337;-80
2023/11/30 00:34:13;;;;;;;82.80;35.30;;;;;;;-3.71;91.65;99606.86;105709;1259;99167;-80
2023/11/30 00:36:58;;;;;;;85.50;35.70;;;;;;;-3.70;91.54;99607.53;105787;1259;99250;-79
2023/11/30 00:39:44;;;;;;;77.70;34.00;;;;;;;-3.70;91.49;99608.85;105953;1259;97969;-79
2023/11/30 00:42:30;;;;;;;76.20;34.50;;;;;;;-3.68;91.44;99610.30;105771;1259;97903;-79
2023/11/30 00:45:15;;;;;;;78.50;34.60;;;;;;;-3.67;91.46;99607.41;105742;1261;102592;-80
2023/11/30 00:48:01;;;;;;;79.40;35.80;;;;;;;-3.66;91.38;99608.57;105696;1259;100832;-78
2023/11/30 00:50:47;;;;;;;84.00;33.80;;;;;;;-3.66;91.38;99603.50;105655;1263;99070;-79
2023/11/30 00:53:32;;;;;;;80.60;35.50;;;;;;;-3.65;91.19;99599.80;105832;1259;97954;-80
2023/11/30 00:56:18;;;;;;;72.70;32.30;;;;;;;-3.65;91.08;99596.60;105880;1263;98110;-79
2023/11/30 00:59:03;;;;;;;78.40;34.60;;;;;;;-3.65;91.07;99596.77;105835;1259;101465;-79
2023/11/30 01:01:49;;;;;;;85.90;33.90;;;;;;;-3.64;90.93;99597.08;105859;1259;99105;-78
2023/11/30 01:04:35;;;;;;;84.40;35.80;;;;;;;-3.65;90.90;99599.05;105847;1259;98079;-78
2023/11/30 01:07:20;;;;;;;79.30;35.10;;;;;;;-3.65;91.02;99595.52;105822;1259;97940;-80
2023/11/30 01:10:06;;;;;;;81.40;35.00;;;;;;;-3.63;91.10;99593.16;105787;1259;98426;-79
2023/11/30 01:12:52;;;;;;;75.80;34.60;;;;;;;-3.63;91.21;99589.83;105421;1264;101411;-79
2023/11/30 01:15:37;;;;;;;86.60;38.00;;;;;;;-3.62;91.59;99587.13;105463;1262;99090;-79
2023/11/30 01:18:23;;;;;;;83.30;35.40;;;;;;;-3.61;91.83;99583.70;105305;1259;98605;-79
2023/11/30 01:21:08;;;;;;;81.80;35.10;;;;;;;-3.59;92.05;99581.98;105337;1259;98030;-78
2023/11/30 01:23:54;;;;;;;88.10;36.80;;;;;;;-3.59;92.08;99583.78;105551;1259;98531;-78
2023/11/30 01:26:40;;;;;;;82.60;34.80;;;;;;;-3.62;92.02;99580.52;105447;1263;101456;-79
2023/11/30 01:29:25;;;;;;;80.00;34.20;;;;;;;-3.63;92.10;99575.84;105342;1259;100436;-79
2023/11/30 01:32:11;;;;;;;76.50;34.40;;;;;;;-3.62;92.38;99579.11;105300;1264;99152;-79
2023/11/30 01:34:57;;;;;;;81.80;34.90;;;;;;;-3.60;92.47;99578.09;105479;1264;98034;-79
2023/11/30 01:37:43;;;;;;;78.60;35.30;;;;;;;-3.58;92.44;99581.56;105468;1259;97989;-77
2023/11/30 01:40:28;;;;;;;76.80;33.20;;;;;;;-3.56;92.35;99580.91;105477;1259;102607;-79
2023/11/30 01:43:18;;;;;;;83.20;35.60;;;;;;;-3.55;92.30;99582.40;105397;1263;100104;-78
2023/11/30 01:46:04;;;;;;;91.30;35.60;;;;;;;-3.54;92.35;99579.71;105483;1262;97987;-79
2023/11/30 01:48:50;;;;;;;85.30;37.70;;;;;;;-3.56;92.24;99580.01;105390;1259;98050;-79
2023/11/30 01:51:36;;;;;;;86.60;36.20;;;;;;;-3.56;92.34;99579.49;105317;1265;98002;-79
2023/11/30 01:54:22;;;;;;;78.70;35.20;;;;;;;-3.56;92.22;99575.83;105425;1259;102623;-79
2023/11/30 01:57:07;;;;;;;85.20;38.00;;;;;;;-3.57;92.22;99578.50;105429;1260;99155;-79
2023/11/30 01:59:54;;;;;;;87.40;37.20;;;;;;;-3.57;92.32;99578.49;105332;1262;99098;-78
2023/11/30 02:02:39;;;;;;;88.80;37.00;;;;;;;-3.57;92.37;99575.61;105371;1262;99806;-79
2023/11/30 02:05:25;;;;;;;82.10;34.50;;;;;;;-3.58;92.31;99574.05;105277;1263;97881;-78
2023/11/30 02:08:11;;;;;;;78.10;34.50;;;;;;;-3.57;92.33;99576.04;105323;1265;102000;-79
2023/11/30 02:10:57;;;;;;;81.20;35.50;;;;;;;-3.55;92.39;99575.58;108050;1259;99238;-79
2023/11/30 02:13:44;;;;;;;85.70;38.90;;;;;;;-3.54;92.53;99575.66;105342;1259;98430;-78
2023/11/30 02:16:30;;;;;;;87.80;38.90;;;;;;;-3.52;92.51;99570.29;105332;1260;98038;-78
2023/11/30 02:19:15;;;;;;;74.30;34.80;;;;;;;-3.50;92.55;99568.52;105404;1263;98501;-78
2023/11/30 02:22:01;;;;;;;84.00;35.60;;;;;;;-3.48;92.53;99566.27;105461;1259;101437;-79
2023/11/30 02:24:46;;;;;;;82.10;35.60;;;;;;;-3.47;92.65;99564.42;105530;1259;100427;-78
2023/11/30 02:27:32;;;;;;;87.30;38.00;;;;;;;-3.48;92.66;99563.27;105403;1261;98841;-78
2023/11/30 02:30:17;;;;;;;77.30;34.50;;;;;;;-3.49;92.57;99569.32;105302;1264;99382;-77
2023/11/30 02:33:03;;;;;;;83.80;35.10;;;;;;;-3.51;92.58;99569.11;105491;1263;98481;-79
2023/11/30 02:35:49;;;;;;;80.90;33.80;;;;;;;-3.50;92.82;99573.96;105579;1262;101449;-78
2023/11/30 02:38:34;;;;;;;84.20;35.30;;;;;;;-3.49;92.94;99575.64;105393;1263;99163;-78
2023/11/30 02:41:20;;;;;;;90.50;36.70;;;;;;;-3.48;92.98;99575.15;105336;1264;98416;-78
2023/11/30 02:44:08;;;;;;;79.40;33.70;;;;;;;-3.47;93.18;99577.36;105793;1259;97912;-79
2023/11/30 02:46:53;;;;;;;77.70;33.40;;;;;;;-3.46;93.40;99572.36;105707;1259;97972;-79
2023/11/30 02:49:39;;;;;;;81.30;33.80;;;;;;;-3.44;93.64;99573.26;105812;1260;101430;-78
2023/11/30 02:52:25;;;;;;;77.90;34.60;;;;;;;-3.42;93.88;99567.16;105821;1259;99424;-80
2023/11/30 02:55:10;;;;;;;74.10;31.20;;;;;;;-3.39;94.09;99566.02;105648;1264;98052;-79
2023/11/30 02:57:56;;;;;;;80.00;34.90;;;;;;;-3.37;94.11;99560.98;105836;1259;97875;-78
2023/11/30 03:00:41;;;;;;;82.00;34.30;;;;;;;-3.33;94.50;99558.20;105432;1259;97846;-80
2023/11/30 03:03:27;;;;;;;83.40;36.70;;;;;;;-3.28;94.48;99557.46;105499;1264;102731;-79
2023/11/30 03:06:12;;;;;;;74.70;33.40;;;;;;;-3.26;94.38;99559.01;105488;1259;99201;-79
2023/11/30 03:08:58;;;;;;;77.90;35.90;;;;;;;-3.26;94.44;99562.48;105269;1263;97887;-78
2023/11/30 03:11:43;;;;;;;73.20;34.20;;;;;;;-3.24;94.79;99558.35;105794;1259;98867;-79
2023/11/30 03:14:29;;;;;;;85.10;35.80;;;;;;;-3.21;95.00;99558.58;105849;1259;97893;-79
2023/11/30 03:17:14;;;;;;;72.30;35.10;;;;;;;-3.17;95.17;99553.95;105809;1260;102797;-79
2023/11/30 03:20:00;;;;;;;74.10;33.80;;;;;;;-3.13;95.24;99551.70;105766;1263;99080;-78
2023/11/30 03:22:45;;;;;;;72.70;33.30;;;;;;;-3.10;95.14;99549.05;105442;1264;98071;-78
2023/11/30 03:25:32;;;;;;;79.20;34.20;;;;;;;-3.10;95.22;99543.25;105372;1262;97963;-79
2023/11/30 03:28:18;;;;;;;72.80;34.70;;;;;;;-3.09;95.33;99547.39;105455;1259;97868;-79
2023/11/30 03:31:03;;;;;;;72.70;33.30;;;;;;;-3.08;95.50;99547.95;105492;1264;101710;-79
2023/11/30 03:33:49;;;;;;;79.30;34.00;;;;;;;-3.07;95.66;99543.32;105363;1261;99239;-78
2023/11/30 03:36:34;;;;;;;78.10;34.80;;;;;;;-3.05;95.74;99539.85;105334;1264;98634;-79
2023/11/30 03:39:20;;;;;;;72.30;31.70;;;;;;;-3.02;95.94;99539.41;105433;1260;97977;-78
2023/11/30 03:42:07;;;;;;;76.60;34.80;;;;;;;-3.00;96.08;99536.64;105483;1260;98525;-79
2023/11/30 03:44:52;;;;;;;75.20;34.30;;;;;;;-2.98;96.16;99532.81;105313;1259;101400;-79
2023/11/30 03:47:37;;;;;;;72.70;33.30;;;;;;;-2.96;96.22;99529.52;105445;1275;99257;-79
2023/11/30 03:50:23;;;;;;;75.00;35.10;;;;;;;-2.94;96.37;99530.85;105345;1264;99026;-80
2023/11/30 03:53:08;;;;;;;72.80;34.10;;;;;;;-2.90;96.64;99534.21;105573;1260;97969;-79
2023/11/30 03:55:54;;;;;;;76.30;34.50;;;;;;;-2.85;96.70;99531.05;105493;1259;98903;-79
2023/11/30 03:58:39;;;;;;;72.40;33.60;;;;;;;-2.82;96.80;99532.48;105251;1259;101456;-78
2023/11/30 04:01:25;;;;;;;77.00;32.00;;;;;;;-2.79;96.86;99530.30;105414;1263;99974;-78
2023/11/30 04:04:11;;;;;;;68.90;31.60;;;;;;;-2.76;96.80;99530.89;105362;1264;97900;-78
2023/11/30 04:06:57;;;;;;;65.50;31.20;;;;;;;-2.74;97.00;99529.30;105383;1265;98058;-78
2023/11/30 04:09:42;;;;;;;65.80;31.20;;;;;;;-2.69;97.21;99529.13;105376;1263;98497;-78
2023/11/30 04:12:28;;;;;;;66.20;31.80;;;;;;;-2.66;97.43;99530.64;105393;1264;101421;-78
2023/11/30 04:15:14;;;;;;;74.00;33.40;;;;;;;-2.64;97.47;99531.14;105324;1259;100320;-78
2023/11/30 04:18:00;;;;;;;75.10;35.20;;;;;;;-2.62;97.50;99526.23;105270;1259;97980;-80
2023/11/30 04:20:46;;;;;;;67.70;32.00;;;;;;;-2.61;97.65;99527.86;105358;1259;97987;-79
2023/11/30 04:23:31;;;;;;;72.40;34.60;;;;;;;-2.59;97.95;99524.77;105439;1259;98418;-79
2023/11/30 04:26:17;;;;;;;76.10;33.70;;;;;;;-2.57;98.07;99525.75;105242;1265;101595;-78
2023/11/30 04:29:02;;;;;;;67.60;32.60;;;;;;;-2.56;98.12;99525.17;105407;1259;99192;-78
2023/11/30 04:31:48;;;;;;;70.90;31.40;;;;;;;-2.54;98.31;99526.95;105315;1259;98070;-79
2023/11/30 04:34:34;;;;;;;71.90;32.90;;;;;;;-2.53;98.44;99528.40;105399;1259;98056;-78
2023/11/30 04:37:19;;;;;;;64.80;32.20;;;;;;;-2.51;98.45;99530.90;105351;1259;98494;-78
2023/11/30 04:40:06;;;;;;;66.40;31.70;;;;;;;-2.50;98.60;99530.59;105409;1259;101337;-78
2023/11/30 04:42:51;;;;;;;73.50;33.50;;;;;;;-2.48;98.64;99532.20;105586;1263;99654;-79
2023/11/30 04:45:37;;;;;;;60.30;29.00;;;;;;;-2.47;98.67;99532.82;105274;1264;99010;-78
2023/11/30 04:48:23;;;;;;;68.30;32.50;;;;;;;-2.46;98.75;99532.39;105230;1259;99123;-79
2023/11/30 04:51:08;;;;;;;71.80;32.70;;;;;;;-2.44;98.82;99526.98;105355;1264;98804;-78
2023/11/30 04:53:54;;;;;;;70.10;33.30;;;;;;;-2.42;98.83;99523.98;105313;1265;101953;-78
2023/11/30 04:56:40;;;;;;;67.50;31.30;;;;;;;-2.41;98.98;99521.91;105362;1259;100501;-79
2023/11/30 04:59:25;;;;;;;71.60;33.20;;;;;;;-2.38;99.09;99521.38;105335;1264;97921;-78
2023/11/30 05:02:10;;;;;;;67.90;31.00;;;;;;;-2.36;99.20;99521.36;105462;1259;98048;-79
2023/11/30 05:04:56;;;;;;;63.20;30.90;;;;;;;-2.33;99.22;99519.36;105416;1263;98537;-77
2023/11/30 05:07:42;;;;;;;67.50;30.00;;;;;;;-2.30;99.02;99516.16;105402;1264;101732;-78
2023/11/30 05:10:27;;;;;;;64.70;32.00;;;;;;;-2.28;99.03;99514.73;105686;1259;100322;-79
2023/11/30 05:13:13;;;;;;;70.20;32.50;;;;;;;-2.27;99.10;99512.51;105497;1265;99514;-78
2023/11/30 05:15:59;;;;;;;60.80;29.00;;;;;;;-2.25;99.00;99510.48;105310;1259;97974;-78
2023/11/30 05:18:45;;;;;;;65.40;30.20;;;;;;;-2.23;98.93;99504.91;105416;1265;98077;-78
2023/11/30 05:21:31;;;;;;;66.60;30.90;;;;;;;-2.23;98.68;99503.41;105483;1259;102791;-78
2023/11/30 05:24:17;;;;;;;64.30;30.90;;;;;;;-2.23;98.47;99500.82;105792;1264;99130;-79
2023/11/30 05:27:02;;;;;;;62.70;29.20;;;;;;;-2.24;98.37;99496.73;105632;1259;99070;-79
2023/11/30 05:29:48;;;;;;;59.90;27.80;;;;;;;-2.25;98.28;99495.20;105753;1259;97779;-79
2023/11/30 05:32:33;;;;;;;54.90;28.70;;;;;;;-2.25;98.30;99497.55;105889;1263;98144;-79
2023/11/30 05:35:19;;;;;;;62.60;29.20;;;;;;;-2.27;98.35;99500.30;105570;1259;101377;-78
2023/11/30 05:38:04;;;;;;;55.30;29.00;;;;;;;-2.28;98.51;99496.76;105310;1259;99091;-78
2023/11/30 05:40:50;;;;;;;58.10;27.50;;;;;;;-2.30;98.77;99500.55;105389;1260;98791;-78
2023/11/30 05:43:35;;;;;;;62.70;29.70;;;;;;;-2.29;98.99;99502.23;105426;1259;97887;-78
2023/11/30 05:46:21;;;;;;;54.20;27.70;;;;;;;-2.29;99.17;99504.50;105414;1265;97876;-79
2023/11/30 05:49:06;;;;;;;62.20;28.10;;;;;;;-2.28;99.44;99504.23;105307;1259;101452;-79
2023/11/30 05:51:52;;;;;;;53.90;26.90;;;;;;;-2.25;99.69;99499.29;105360;1263;99778;-79
2023/11/30 05:54:38;;;;;;;66.30;29.00;;;;;;;-2.21;99.66;99502.95;105608;1262;97962;-78
2023/11/30 05:57:23;;;;;;;52.70;28.40;;;;;;;-2.19;99.72;99504.17;105739;1259;98844;-78
2023/11/30 06:00:12;;;;;;;57.20;28.20;;;;;;;-2.17;99.65;99506.61;105486;1263;98473;-79
2023/11/30 06:02:57;;;;;;;58.20;27.80;;;;;;;-2.14;99.66;99511.79;105277;1259;102629;-79
2023/11/30 06:05:43;;;;;;;60.40;29.40;;;;;;;-2.11;99.82;99514.98;105421;1265;99204;-78
2023/11/30 06:08:29;;;;;;;56.30;27.30;;;;;;;-2.09;99.90;99514.83;105376;1259;97955;-79
2023/11/30 06:11:15;;;;;;;59.00;30.10;;;;;;;-2.10;99.87;99520.27;105232;1259;98831;-79
2023/11/30 06:14:01;;;;;;;55.80;26.80;;;;;;;-2.08;99.91;99521.68;105273;1264;99138;-79
2023/11/30 06:16:46;;;;;;;56.60;27.70;;;;;;;-2.06;99.86;99521.36;105303;1264;101334;-78
2023/11/30 06:19:32;;;;;;;48.10;25.60;;;;;;;-2.06;99.91;99521.70;105850;1263;99089;-78
2023/11/30 06:22:18;;;;;;;55.80;29.50;;;;;;;-2.06;99.96;99521.70;105623;1263;98553;-78
2023/11/30 06:25:05;;;;;;;59.30;28.20;;;;;;;-2.05;99.98;99523.23;105645;1265;98335;-78
2023/11/30 06:27:50;;;;;;;60.90;29.60;;;;;;;-2.05;99.99;99524.63;105502;1259;98655;-80
2023/11/30 06:30:36;;;;;;;58.70;27.50;;;;;;;-2.04;99.99;99525.56;106227;1263;101389;-80
2023/11/30 06:33:21;;;;;;;57.30;28.30;;;;;;;-2.03;100.00;99526.00;106462;1259;99232;-79
2023/11/30 06:36:07;;;;;;;59.70;27.50;;;;;;;-2.02;100.00;99527.02;106587;1259;99517;-79
2023/11/30 06:38:52;;;;;;;55.20;27.00;;;;;;;-2.03;100.00;99527.90;106037;1263;97944;-79
2023/11/30 06:41:38;;;;;;;56.20;28.00;;;;;;;-2.01;100.00;99529.00;106219;1259;97953;-80
2023/11/30 06:44:24;;;;;;;58.80;29.00;;;;;;;-2.00;100.00;99527.85;106296;1259;101339;-80
2023/11/30 06:47:09;;;;;;;52.20;26.10;;;;;;;-2.00;100.00;99530.44;106435;1260;99090;-80
2023/11/30 06:49:55;;;;;;;57.40;27.50;;;;;;;-1.99;100.00;99531.08;105988;1259;97959;-78
2023/11/30 06:52:41;;;;;;;54.70;27.90;;;;;;;-2.00;100.00;99528.23;105811;1264;98749;-79
2023/11/30 06:55:26;;;;;;;56.50;26.50;;;;;;;-2.01;100.00;99529.01;105765;1263;98491;-77
2023/11/30 06:58:12;;;;;;;54.50;27.90;;;;;;;-2.00;100.00;99537.46;105454;1259;101351;-78
2023/11/30 07:00:57;;;;;;;58.30;28.50;;;;;;;-1.99;100.00;99536.33;105406;1263;100163;-78
2023/11/30 07:03:44;;;;;;;50.20;25.90;;;;;;;-2.01;100.00;99537.67;105844;1262;97945;-79
2023/11/30 07:06:30;;;;;;;54.40;26.80;;;;;;;-2.01;100.00;99540.15;105814;1258;97996;-80
2023/11/30 07:09:16;;;;;;;51.90;26.30;;;;;;;-2.01;100.00;99545.41;105840;1259;98105;-79
2023/11/30 07:12:02;;;;;;;55.50;27.20;;;;;;;-2.01;100.00;99547.34;105431;1264;102689;-79
2023/11/30 07:14:49;;;;;;;55.40;26.70;;;;;;;-1.99;100.00;99547.34;105464;1263;100287;-79
2023/11/30 07:17:35;;;;;;;53.30;26.00;;;;;;;-1.98;100.00;99547.05;105853;1260;97888;-79
2023/11/30 07:20:22;;;;;;;50.30;25.00;;;;;;;-1.97;100.00;99549.92;105751;1260;97968;-80
2023/11/30 07:23:07;;;;;;;51.40;26.50;;;;;;;-1.96;100.00;99546.59;105774;1263;97978;-79
2023/11/30 07:25:53;;;;;;;49.10;24.60;;;;;;;-1.96;100.00;99549.56;105852;1265;102456;-79
2023/11/30 07:28:40;;;;;;;44.10;23.40;;;;;;;-1.97;100.00;99554.36;105754;1264;99085;-80
2023/11/30 07:31:26;;;;;;;53.90;26.10;;;;;;;-1.98;100.00;99562.48;105574;1259;99038;-78
2023/11/30 07:34:11;;;;;;;48.40;25.80;;;;;;;-1.98;100.00;99564.22;105855;1259;98087;-79
2023/11/30 07:36:57;;;;;;;56.10;27.80;;;;;;;-1.97;100.00;99562.59;105442;1260;97958;-78
2023/11/30 07:39:42;;;;;;;51.00;25.60;;;;;;;-1.96;100.00;99563.83;106004;1259;102388;-79
2023/11/30 07:42:30;;;;;;;51.00;24.60;;;;;;;-1.95;100.00;99563.73;106024;1260;100519;-79
2023/11/30 07:45:16;;;;;;;50.00;25.10;;;;;;;-1.94;100.00;99563.88;105923;1259;99598;-79
2023/11/30 07:48:03;;;;;;;51.60;26.60;;;;;;;-1.94;100.00;99567.52;105848;1259;97985;-79
2023/11/30 07:50:51;;;;;;;52.10;26.30;;;;;;;-1.93;100.00;99569.35;105707;1263;129487;-79
2023/11/30 07:53:36;;;;;;;53.80;25.80;;;;;;;-1.91;100.00;99571.62;105895;1264;102062;-77
2023/11/30 07:56:22;;;;;;;49.90;25.80;;;;;;;-1.89;100.00;99576.90;105402;1259;99094;-78
2023/11/30 07:59:07;;;;;;;50.90;24.80;;;;;;;-1.88;100.00;99577.55;105341;1263;99057;-78
2023/11/30 08:01:53;;;;;;;49.90;25.30;;;;;;;-1.89;100.00;99574.06;105393;1259;97888;-80
2023/11/30 08:04:38;;;;;;;50.00;26.80;;;;;;;-1.88;100.00;99575.04;105484;1264;97969;-81
2023/11/30 08:07:23;;;;;;;51.70;26.20;;;;;;;-1.87;100.00;99576.17;106339;1263;103109;-81
2023/11/30 08:10:10;;;;;;;51.60;25.10;;;;;;;-1.86;100.00;99578.68;106124;1263;100391;-81
2023/11/30 08:12:56;;;;;;;48.90;26.40;;;;;;;-1.84;100.00;99579.41;108136;1259;97658;-81
2023/11/30 08:15:42;;;;;;;54.60;26.00;;;;;;;-1.79;100.00;99583.23;105768;1265;98085;-84
2023/11/30 08:18:28;;;;;;;53.30;27.60;;;;;;;-1.76;100.00;99584.30;106164;1260;98776;-86
2023/11/30 08:21:14;;;;;;;51.80;27.50;;;;;;;-1.72;100.00;99582.55;105999;1259;101400;-79
2023/11/30 08:24:00;;;;;;;59.00;28.70;;;;;;;-1.68;100.00;99582.36;105498;1259;99145;-79
2023/11/30 08:26:46;;;;;;;53.20;28.00;;;;;;;-1.64;100.00;99583.56;105461;1259;97977;-79
2023/11/30 08:29:35;;;;;;;52.30;25.90;;;;;;;-1.59;100.00;99590.52;105446;1260;98098;-77
2023/11/30 08:32:21;;;;;;;54.90;28.30;;;;;;;-1.54;100.00;99593.09;105341;1263;99768;-77
2023/11/30 08:35:07;;;;;;;48.00;26.20;;;;;;;-1.49;100.00;99593.33;105303;1260;102083;-78
2023/11/30 08:37:55;;;;;;;55.10;26.90;;;;;;;-1.45;100.00;99591.06;105362;1265;100557;-77
2023/11/30 08:40:40;;;;;;;50.50;25.30;;;;;;;-1.42;100.00;99594.55;105374;1263;98469;-77
2023/11/30 08:43:26;;;;;;;51.90;27.80;;;;;;;-1.34;100.00;99596.54;105489;1262;98719;-78
2023/11/30 08:46:12;;;;;;;109.50;57.20;;;;;;;-1.27;100.00;99598.84;105282;1263;99656;-79
2023/11/30 08:48:57;;;;;;;113.30;55.90;;;;;;;-1.21;100.00;99600.59;105362;1259;102581;-77
2023/11/30 08:51:43;;;;;;;206.50;92.70;;;;;;;-1.17;100.00;99602.27;105591;1263;99495;-77
2023/11/30 08:54:28;;;;;;;241.00;117.70;;;;;;;-1.12;100.00;99599.75;105475;1263;98436;-78
2023/11/30 08:57:14;;;;;;;135.90;71.90;;;;;;;-1.07;100.00;99600.32;105424;1263;98703;-77
2023/11/30 08:59:59;;;;;;;89.10;54.80;;;;;;;-1.02;100.00;99600.96;105400;1265;99449;-77
2023/11/30 09:02:45;;;;;;;58.90;33.60;;;;;;;-0.97;100.00;99603.81;105339;1270;102619;-77
2023/11/30 09:05:30;;;;;;;58.40;31.50;;;;;;;-0.91;100.00;99605.76;105353;1263;99375;-77
2023/11/30 09:08:16;;;;;;;50.40;27.90;;;;;;;-0.86;100.00;99601.21;105323;1265;99005;-78
2023/11/30 09:11:01;;;;;;;49.10;27.30;;;;;;;-0.80;100.00;99599.66;105401;1265;97858;-77
2023/11/30 09:13:47;;;;;;;52.00;27.50;;;;;;;-0.75;100.00;99596.36;105385;1263;97927;-77
2023/11/30 09:16:33;;;;;;;48.80;27.00;;;;;;;-0.70;100.00;99593.30;105441;1259;102625;-77
2023/11/30 09:19:19;;;;;;;52.60;29.50;;;;;;;-0.65;100.00;99589.72;105302;1259;99077;-76
2023/11/30 09:22:06;;;;;;;51.80;27.90;;;;;;;-0.59;100.00;99582.48;105288;1259;98497;-77
2023/11/30 09:24:52;;;;;;;50.60;27.80;;;;;;;-0.47;100.00;99577.81;105262;1265;97963;-78
2023/11/30 09:27:38;;;;;;;48.00;26.70;;;;;;;-0.33;100.00;99572.27;105338;1265;98435;-77
2023/11/30 09:30:23;;;;;;;48.30;25.50;;;;;;;-0.24;100.00;99569.18;105320;1259;102008;-77
2023/11/30 09:33:10;;;;;;;51.80;27.80;;;;;;;-0.21;100.00;99566.94;105297;1273;99113;-77
2023/11/30 09:35:56;;;;;;;48.00;25.60;;;;;;;-0.18;100.00;99562.25;105320;1263;97961;-77
2023/11/30 09:38:42;;;;;;;47.40;26.40;;;;;;;-0.11;100.00;99558.20;105359;1264;98044;-77
2023/11/30 09:41:28;;;;;;;46.40;25.50;;;;;;;-0.01;100.00;99555.04;105416;1263;98076;-77
2023/11/30 09:44:14;;;;;;;46.00;25.10;;;;;;;0.11;100.00;99558.64;105376;1265;102653;-78
2023/11/30 09:46:59;;;;;;;48.50;26.30;;;;;;;0.20;100.00;99559.50;105085;1263;99209;-77
2023/11/30 09:49:45;;;;;;;48.00;26.60;;;;;;;0.31;100.00;99559.47;105257;1259;98028;-77
2023/11/30 09:52:35;;;;;;;47.70;26.90;;;;;;;0.40;100.00;99558.48;105330;1265;97986;-77
2023/11/30 09:55:25;;;;;;;48.40;27.80;;;;;;;0.43;100.00;99553.26;105297;1264;97633;-77
2023/11/30 09:58:10;;;;;;;46.10;28.30;;;;;;;0.46;100.00;99548.05;105322;1259;102770;-76
2023/11/30 10:00:56;;;;;;;46.20;25.40;;;;;;;0.46;100.00;99545.16;105402;1264;99128;-76
2023/11/30 10:03:41;;;;;;;45.30;26.30;;;;;;;0.48;100.00;99540.20;105352;1264;98062;-77
2023/11/30 10:06:27;;;;;;;41.10;24.50;;;;;;;0.54;100.00;99536.48;105245;1260;97884;-77
2023/11/30 10:09:13;;;;;;;42.90;24.90;;;;;;;0.57;100.00;99530.71;105352;1264;98431;-77
2023/11/30 10:11:59;;;;;;;44.40;24.30;;;;;;;0.62;100.00;99530.97;105461;1260;101454;-86
2023/11/30 10:14:46;;;;;;;41.00;23.00;;;;;;;0.67;100.00;99528.37;105969;1265;99483;-83
2023/11/30 10:17:31;;;;;;;43.40;24.80;;;;;;;0.70;100.00;99527.30;106235;1264;99065;-81
2023/11/30 10:20:18;;;;;;;43.90;24.90;;;;;;;0.74;100.00;99530.13;105958;1260;97932;-82
2023/11/30 10:23:12;;;;;;;44.30;25.60;;;;;;;0.74;100.00;99531.18;106566;1259;99168;-81
2023/11/30 10:25:58;;;;;;;39.80;22.80;;;;;;;0.73;100.00;99532.80;105924;1264;101884;-80
2023/11/30 10:28:43;;;;;;;40.50;23.00;;;;;;;0.75;100.00;99537.39;105567;1263;99197;-81
2023/11/30 10:31:29;;;;;;;41.90;24.80;;;;;;;0.78;100.00;99532.19;105939;1264;99048;-82
2023/11/30 10:34:21;;;;;;;38.20;22.50;;;;;;;0.82;100.00;99532.15;105945;1263;98614;-83
2023/11/30 10:37:09;;;;;;;36.00;21.50;;;;;;;0.87;100.00;99536.60;105848;1264;99641;-82
2023/11/30 10:40:09;;;;;;;37.20;22.50;;;;;;;0.92;100.00;99538.39;105432;1268;101513;-81
2023/11/30 10:43:03;;;;;;;37.90;21.70;;;;;;;0.96;100.00;99540.47;105456;1265;99203;-85
2023/11/30 10:45:53;;;;;;;37.00;21.60;;;;;;;0.98;100.00;99538.41;105848;1263;99044;-85
2023/11/30 10:48:39;;;;;;;37.60;23.80;;;;;;;1.02;100.00;99536.17;105764;1259;98030;-83
2023/11/30 10:51:26;;;;;;;42.00;23.30;;;;;;;1.04;100.00;99535.61;106043;1263;97779;-85
2023/11/30 10:54:26;;;;;;;38.80;21.30;;;;;;;1.07;100.00;99537.40;106018;1266;102170;-83
2023/11/30 10:57:13;;;;;;;35.60;21.70;;;;;;;1.08;100.00;99537.27;106077;1261;99169;-85
2023/11/30 10:59:59;;;;;;;38.50;22.50;;;;;;;1.10;100.00;99538.16;105896;1261;99085;-83
2023/11/30 11:02:47;;;;;;;37.70;21.80;;;;;;;1.11;100.00;99536.79;105939;1261;99222;-77
2023/11/30 11:05:32;;;;;;;33.10;21.00;;;;;;;1.12;100.00;99536.89;105101;1265;98384;-78
2023/11/30 11:08:19;;;;;;;37.70;21.30;;;;;;;1.12;100.00;99538.44;105256;1261;102151;-77
2023/11/30 11:11:08;;;;;;;45.60;23.00;;;;;;;1.13;100.00;99534.30;105473;1260;100840;-74
2023/11/30 11:13:54;;;;;;;50.10;31.40;;;;;;;1.15;100.00;99532.55;105071;1261;97995;-75
2023/11/30 11:16:44;;;;;;;54.40;31.80;;;;;;;1.14;100.00;99532.55;105016;1263;97957;-76
2023/11/30 11:19:32;;;;;;;43.20;24.90;;;;;;;1.16;100.00;99532.61;105095;1261;98983;-74
2023/11/30 11:22:30;;;;;;;38.50;23.80;;;;;;;1.16;100.00;99536.44;105293;1265;101362;-84
2023/11/30 11:25:20;;;;;;;43.40;26.30;;;;;;;1.20;100.00;99530.83;106015;1260;99169;-84
2023/11/30 11:28:06;;;;;;;38.80;23.80;;;;;;;1.25;100.00;99526.38;105855;1266;98034;-79
2023/11/30 11:30:52;;;;;;;38.00;22.10;;;;;;;1.30;100.00;99528.52;106360;1264;98910;-81
2023/11/30 11:33:41;;;;;;;49.30;24.50;;;;;;;1.33;100.00;99528.87;106260;1261;97874;-79
2023/11/30 11:36:26;;;;;;;38.70;22.60;;;;;;;1.37;100.00;99528.31;106047;1260;102576;-80
2023/11/30 11:39:13;;;;;;;35.60;21.70;;;;;;;1.40;99.91;99526.32;106155;1261;99129;-79
2023/11/30 11:41:58;;;;;;;40.50;23.00;;;;;;;1.41;99.62;99522.84;106300;1263;98979;-80
2023/11/30 11:44:44;;;;;;;40.10;22.30;;;;;;;1.43;99.43;99521.55;106323;1263;97992;-80
2023/11/30 11:47:30;;;;;;;36.90;21.70;;;;;;;1.45;99.50;99517.50;105546;1263;97885;-81
2023/11/30 11:50:17;;;;;;;35.20;20.90;;;;;;;1.45;99.16;99520.15;106158;1260;103017;-82
2023/11/30 11:53:03;;;;;;;36.40;21.90;;;;;;;1.43;98.74;99520.30;106217;1261;99267;-80
2023/11/30 11:55:49;;;;;;;39.20;23.10;;;;;;;1.43;99.05;99517.36;105915;1264;98848;-78
2023/11/30 11:58:35;;;;;;;39.10;22.30;;;;;;;1.47;99.27;99515.90;105343;1260;98491;-77
2023/11/30 12:01:21;;;;;;;39.00;22.40;;;;;;;1.51;99.38;99511.55;105281;1263;97911;-77
2023/11/30 12:04:07;;;;;;;41.90;23.40;;;;;;;1.56;99.40;99509.37;105199;1263;101259;-78
2023/11/30 12:06:53;;;;;;;38.40;22.90;;;;;;;1.58;99.17;99508.48;105542;1263;100443;-78
2023/11/30 12:09:38;;;;;;;33.30;20.40;;;;;;;1.55;98.45;99509.92;105063;1264;97961;-76
2023/11/30 12:12:32;;;;;;;34.10;21.10;;;;;;;1.52;98.22;99509.55;105146;1264;98827;-77
2023/11/30 12:15:18;;;;;;;37.00;20.20;;;;;;;1.50;98.17;99510.66;105196;1260;98481;-82
2023/11/30 12:18:04;;;;;;;36.10;19.90;;;;;;;1.49;98.37;99508.58;105827;1263;102112;-81
2023/11/30 12:20:49;;;;;;;39.50;21.80;;;;;;;1.51;98.37;99511.59;106121;1261;99769;-81
2023/11/30 12:23:35;;;;;;;37.50;21.10;;;;;;;1.54;98.33;99508.23;106213;1261;98820;-81
2023/11/30 12:26:22;;;;;;;40.50;21.90;;;;;;;1.56;98.23;99504.42;106016;1261;97898;-83
2023/11/30 12:29:10;;;;;;;36.20;21.60;;;;;;;1.56;98.04;99501.58;106069;1259;97902;-82
2023/11/30 12:31:55;;;;;;;38.50;21.00;;;;;;;1.58;98.05;99496.62;106060;1260;103032;-82